Back to Top

Language: 

My Weather Underground Personal Weather Station Historical Data with Graphs...

Delerius Weather Station Historical Data
Daily Summary for May 16, 2017 Units:  English    Metric   Both
« Previous Day
Next Day »
Daily Weekly Monthly Yearly Custom
  High: Low: Average:
Temperature: 65.7 °F 59.2 °F 61.8 °F
Dew Point: 60.1 °F 56.3 °F 57.7 °F
Humidity: 93 % 78 % 86 %
Wind Speed: 17.0 mph 0.0 mph 9.4 mph
Wind Gust: 30.0 mph - -
Wind:- - SW
Pressure: 30.13 in 30.04 in -
Precipitation: 0.05 in    
Historical Graphs
 
 
Tabular Data for May 16, 2017
Time Temperature Dew Point Pressure Wind Wind Speed Wind Gust Humidity Rainfall Rate (Hourly) solar Conditions
00:04 60.6 °F 57.4 °F 30.06 in SW 10.0 mph 19.0 mph 89 % 0.00 in 0 W/m2
00:09 60.6 °F 57.4 °F 30.07 in SW 9.0 mph 19.0 mph 89 % 0.00 in 0 W/m2
00:14 60.6 °F 57.4 °F 30.06 in SW 9.0 mph 19.0 mph 89 % 0.00 in 0 W/m2
00:19 60.6 °F 57.4 °F 30.06 in SW 10.0 mph 18.0 mph 89 % 0.00 in 0 W/m2
00:25 60.6 °F 57.0 °F 30.06 in SW 11.0 mph 20.0 mph 88 % 0.00 in 0 W/m2
00:30 60.6 °F 57.0 °F 30.06 in SW 11.0 mph 20.0 mph 88 % 0.00 in 0 W/m2
00:35 60.6 °F 57.0 °F 30.06 in SW 13.0 mph 21.0 mph 88 % 0.00 in 0 W/m2
00:40 60.6 °F 57.0 °F 30.06 in SW 12.0 mph 20.0 mph 88 % 0.00 in 0 W/m2
00:46 60.6 °F 57.0 °F 30.06 in SW 13.0 mph 23.0 mph 88 % 0.00 in 0 W/m2
00:51 60.6 °F 57.0 °F 30.05 in SW 14.0 mph 24.0 mph 88 % 0.00 in 0 W/m2
00:56 60.8 °F 57.2 °F 30.05 in SW 15.0 mph 28.0 mph 88 % 0.00 in 0 W/m2
01:01 60.8 °F 57.2 °F 30.05 in SW 15.0 mph 28.0 mph 88 % 0.00 in 0 W/m2
01:06 60.6 °F 57.0 °F 30.05 in SW 14.0 mph 26.0 mph 88 % 0.00 in 0 W/m2
01:11 60.6 °F 57.0 °F 30.04 in SW 13.0 mph 26.0 mph 88 % 0.00 in 0 W/m2
01:16 60.6 °F 57.0 °F 30.04 in SW 15.0 mph 25.0 mph 88 % 0.00 in 0 W/m2
01:21 60.6 °F 57.0 °F 30.04 in SW 15.0 mph 25.0 mph 88 % 0.00 in 0 W/m2
01:26 60.6 °F 57.0 °F 30.05 in SW 15.0 mph 25.0 mph 88 % 0.00 in 0 W/m2
01:31 60.6 °F 57.0 °F 30.04 in SW 15.0 mph 25.0 mph 88 % 0.00 in 0 W/m2
01:36 60.6 °F 57.0 °F 30.05 in SW 14.0 mph 24.0 mph 88 % 0.00 in 0 W/m2
01:41 60.6 °F 57.0 °F 30.05 in SW 12.0 mph 24.0 mph 88 % 0.00 in 0 W/m2
01:46 60.6 °F 57.0 °F 30.05 in SW 12.0 mph 27.0 mph 88 % 0.00 in 0 W/m2
01:51 60.6 °F 57.0 °F 30.05 in SW 13.0 mph 27.0 mph 88 % 0.00 in 0 W/m2
01:56 60.6 °F 57.0 °F 30.04 in SW 14.0 mph 24.0 mph 88 % 0.00 in 0 W/m2
02:01 60.6 °F 57.0 °F 30.04 in SW 14.0 mph 24.0 mph 88 % 0.00 in 0 W/m2
02:06 60.8 °F 57.2 °F 30.05 in SW 15.0 mph 26.0 mph 88 % 0.00 in 0 W/m2
02:11 60.8 °F 57.2 °F 30.05 in SW 15.0 mph 26.0 mph 88 % 0.00 in 0 W/m2
02:16 61.0 °F 57.1 °F 30.04 in SW 15.0 mph 25.0 mph 87 % 0.00 in 0 W/m2
02:21 60.8 °F 56.9 °F 30.04 in SW 14.0 mph 25.0 mph 87 % 0.00 in 0 W/m2
02:26 60.8 °F 56.9 °F 30.04 in SW 15.0 mph 25.0 mph 87 % 0.00 in 0 W/m2
02:31 60.8 °F 56.9 °F 30.04 in SW 15.0 mph 25.0 mph 87 % 0.00 in 0 W/m2
02:36 60.8 °F 56.9 °F 30.04 in SW 14.0 mph 24.0 mph 87 % 0.00 in 0 W/m2
02:41 60.8 °F 56.9 °F 30.04 in SW 15.0 mph 25.0 mph 87 % 0.00 in 0 W/m2
02:46 60.8 °F 56.9 °F 30.04 in SW 16.0 mph 28.0 mph 87 % 0.00 in 0 W/m2
02:51 60.8 °F 56.9 °F 30.04 in SW 16.0 mph 28.0 mph 87 % 0.00 in 0 W/m2
02:56 60.8 °F 56.9 °F 30.04 in SW 15.0 mph 26.0 mph 87 % 0.00 in 0 W/m2
03:01 60.8 °F 56.9 °F 30.04 in SW 15.0 mph 26.0 mph 87 % 0.00 in 0 W/m2
03:06 60.8 °F 56.9 °F 30.04 in SW 15.0 mph 26.0 mph 87 % 0.00 in 0 W/m2
03:11 60.8 °F 56.9 °F 30.04 in SW 15.0 mph 24.0 mph 87 % 0.00 in 0 W/m2
03:16 60.6 °F 56.7 °F 30.04 in SW 14.0 mph 23.0 mph 87 % 0.00 in 0 W/m2
03:21 60.6 °F 56.7 °F 30.05 in SW 13.0 mph 23.0 mph 87 % 0.00 in 0 W/m2
03:26 60.8 °F 56.9 °F 30.05 in SW 15.0 mph 24.0 mph 87 % 0.00 in 0 W/m2
03:31 61.0 °F 57.1 °F 30.04 in SW 16.0 mph 30.0 mph 87 % 0.00 in 0 W/m2
03:37 61.0 °F 56.8 °F 30.05 in SW 16.0 mph 30.0 mph 86 % 0.00 in 0 W/m2
03:41 61.0 °F 56.8 °F 30.05 in SW 17.0 mph 26.0 mph 86 % 0.00 in 0 W/m2
03:47 61.0 °F 56.8 °F 30.05 in SW 16.0 mph 26.0 mph 86 % 0.00 in 0 W/m2
03:50 61.0 °F 56.8 °F 30.05 in SW 15.0 mph 26.0 mph 86 % 0.00 in 0 W/m2
03:55 61.0 °F 56.8 °F 30.05 in SW 13.0 mph 26.0 mph 86 % 0.00 in 0 W/m2
04:00 60.8 °F 56.6 °F 30.05 in SW 12.0 mph 22.0 mph 86 % 0.00 in 0 W/m2
04:05 60.6 °F 56.7 °F 30.05 in SW 12.0 mph 19.0 mph 87 % 0.00 in 0 W/m2
04:10 60.6 °F 56.7 °F 30.05 in SW 11.0 mph 18.0 mph 87 % 0.00 in 0 W/m2
04:15 60.6 °F 56.7 °F 30.04 in SW 10.0 mph 16.0 mph 87 % 0.00 in 0 W/m2
04:20 60.6 °F 56.7 °F 30.05 in SW 11.0 mph 16.0 mph 87 % 0.00 in 0 W/m2
04:25 60.6 °F 56.7 °F 30.05 in SW 12.0 mph 19.0 mph 87 % 0.00 in 0 W/m2
04:30 60.6 °F 56.7 °F 30.05 in SW 13.0 mph 21.0 mph 87 % 0.00 in 0 W/m2
04:35 60.6 °F 56.7 °F 30.05 in SW 13.0 mph 21.0 mph 87 % 0.00 in 0 W/m2
04:41 60.6 °F 56.7 °F 30.05 in SW 12.0 mph 21.0 mph 87 % 0.00 in 0 W/m2
04:46 60.4 °F 56.6 °F 30.05 in SSW 11.0 mph 19.0 mph 87 % 0.00 in 0 W/m2
04:51 60.4 °F 56.6 °F 30.05 in SW 11.0 mph 19.0 mph 87 % 0.00 in 0 W/m2
04:56 60.4 °F 56.6 °F 30.05 in SW 11.0 mph 18.0 mph 87 % 0.00 in 0 W/m2
05:01 60.4 °F 56.6 °F 30.05 in SW 12.0 mph 18.0 mph 87 % 0.00 in 0 W/m2
05:06 60.4 °F 56.6 °F 30.05 in SSW 12.0 mph 19.0 mph 87 % 0.00 in 0 W/m2
05:11 60.4 °F 56.6 °F 30.05 in SSW 12.0 mph 22.0 mph 87 % 0.00 in 0 W/m2
05:16 60.4 °F 56.6 °F 30.06 in SW 11.0 mph 22.0 mph 87 % 0.00 in 5 W/m2
05:17 60.4 °F 56.6 °F 30.06 in SW 11.0 mph 19.0 mph 87 % 0.00 in 5 W/m2
05:22 60.4 °F 56.6 °F 30.05 in SW 11.0 mph 21.0 mph 87 % 0.00 in 7 W/m2
05:27 60.4 °F 56.6 °F 30.06 in SW 12.0 mph 21.0 mph 87 % 0.00 in 9 W/m2
05:32 60.4 °F 56.6 °F 30.05 in SW 12.0 mph 19.0 mph 87 % 0.00 in 9 W/m2
05:37 60.4 °F 56.6 °F 30.05 in SW 12.0 mph 20.0 mph 87 % 0.00 in 11 W/m2
05:42 60.4 °F 56.6 °F 30.05 in SW 12.0 mph 20.0 mph 87 % 0.00 in 12 W/m2
05:47 60.4 °F 56.6 °F 30.05 in SSW 12.0 mph 23.0 mph 87 % 0.00 in 16 W/m2
05:52 60.4 °F 56.6 °F 30.05 in SSW 12.0 mph 23.0 mph 87 % 0.00 in 18 W/m2
05:57 60.4 °F 56.6 °F 30.05 in SSW 12.0 mph 22.0 mph 87 % 0.00 in 19 W/m2
06:02 60.3 °F 56.4 °F 30.05 in SSW 12.0 mph 19.0 mph 87 % 0.00 in 23 W/m2
06:07 60.3 °F 56.4 °F 30.05 in SSW 12.0 mph 19.0 mph 87 % 0.00 in 25 W/m2
06:12 60.3 °F 56.4 °F 30.05 in SSW 11.0 mph 22.0 mph 87 % 0.00 in 25 W/m2
06:17 60.3 °F 56.4 °F 30.05 in SSW 11.0 mph 22.0 mph 87 % 0.00 in 23 W/m2
06:22 60.3 °F 56.4 °F 30.05 in SSW 11.0 mph 19.0 mph 87 % 0.00 in 23 W/m2
06:27 60.3 °F 56.4 °F 30.05 in SSW 11.0 mph 19.0 mph 87 % 0.00 in 25 W/m2
06:33 60.3 °F 56.4 °F 30.05 in SSW 10.0 mph 18.0 mph 87 % 0.00 in 23 W/m2
06:38 60.3 °F 56.4 °F 30.06 in SSW 10.0 mph 18.0 mph 87 % 0.00 in 23 W/m2
06:43 60.3 °F 56.7 °F 30.06 in SSW 9.0 mph 15.0 mph 88 % 0.00 in 28 W/m2
06:48 60.3 °F 56.7 °F 30.06 in SSW 9.0 mph 15.0 mph 88 % 0.00 in 30 W/m2
06:53 60.3 °F 56.7 °F 30.06 in SSW 9.0 mph 14.0 mph 88 % 0.00 in 30 W/m2
06:58 60.3 °F 56.7 °F 30.06 in SSW 8.0 mph 14.0 mph 88 % 0.00 in 28 W/m2
07:03 60.3 °F 56.7 °F 30.06 in SSW 8.0 mph 14.0 mph 88 % 0.00 in 33 W/m2
07:08 60.3 °F 56.7 °F 30.06 in SSW 8.0 mph 14.0 mph 88 % 0.00 in 33 W/m2
07:13 60.3 °F 56.7 °F 30.06 in SSW 8.0 mph 15.0 mph 88 % 0.00 in 33 W/m2
07:18 60.3 °F 56.7 °F 30.06 in SSW 8.0 mph 15.0 mph 88 % 0.00 in 33 W/m2
07:23 60.3 °F 56.4 °F 30.06 in SSW 8.0 mph 13.0 mph 87 % 0.00 in 35 W/m2
07:28 60.4 °F 56.6 °F 30.06 in SSW 8.0 mph 14.0 mph 87 % 0.00 in 33 W/m2
07:33 60.4 °F 56.6 °F 30.05 in SSW 9.0 mph 15.0 mph 87 % 0.00 in 35 W/m2
07:38 60.4 °F 56.6 °F 30.06 in SSW 7.0 mph 15.0 mph 87 % 0.00 in 46 W/m2
07:43 60.4 °F 56.6 °F 30.06 in SSW 6.0 mph 12.0 mph 87 % 0.00 in 54 W/m2
07:48 60.6 °F 56.7 °F 30.06 in SSW 7.0 mph 12.0 mph 87 % 0.00 in 47 W/m2
07:53 60.6 °F 56.7 °F 30.06 in SSW 7.0 mph 11.0 mph 87 % 0.00 in 44 W/m2
07:58 60.6 °F 56.7 °F 30.06 in SW 6.0 mph 11.0 mph 87 % 0.00 in 39 W/m2
08:03 60.8 °F 56.6 °F 30.06 in SW 7.0 mph 15.0 mph 86 % 0.00 in 44 W/m2
08:08 61.0 °F 56.8 °F 30.06 in SW 8.0 mph 15.0 mph 86 % 0.00 in 39 W/m2
08:13 61.0 °F 56.8 °F 30.06 in SW 7.0 mph 13.0 mph 86 % 0.00 in 39 W/m2
08:18 61.0 °F 56.8 °F 30.06 in SW 6.0 mph 10.0 mph 86 % 0.00 in 42 W/m2
08:23 61.0 °F 57.1 °F 30.06 in SSW 7.0 mph 10.0 mph 87 % 0.00 in 51 W/m2
08:27 60.8 °F 57.2 °F 30.06 in SW 7.0 mph 12.0 mph 88 % 0.00 in 46 W/m2
08:32 60.6 °F 57.0 °F 30.06 in SSW 7.0 mph 13.0 mph 88 % 0.00 in 74 W/m2
08:37 60.6 °F 57.0 °F 30.06 in SSW 4.0 mph 13.0 mph 88 % 0.00 in 81 W/m2
08:42 60.6 °F 57.4 °F 30.06 in SSW 2.0 mph 7.0 mph 89 % 0.00 in 83 W/m2
08:47 60.6 °F 57.4 °F 30.06 in SSW 2.0 mph 5.0 mph 89 % 0.00 in 72 W/m2
08:52 60.6 °F 57.4 °F 30.06 in SSW 1.0 mph 6.0 mph 89 % 0.00 in 63 W/m2
08:57 60.6 °F 57.4 °F 30.06 in South 3.0 mph 9.0 mph 89 % 0.01 in 74 W/m2
09:02 60.6 °F 57.4 °F 30.07 in South 5.0 mph 10.0 mph 89 % 0.01 in 90 W/m2
09:07 60.6 °F 57.4 °F 30.07 in SSW 6.0 mph 11.0 mph 89 % 0.01 in 105 W/m2
09:12 60.6 °F 57.7 °F 30.07 in SSW 6.0 mph 11.0 mph 90 % 0.01 in 107 W/m2
09:17 60.6 °F 57.7 °F 30.06 in SSW 6.0 mph 16.0 mph 90 % 0.01 in 120 W/m2
09:19 60.6 °F 57.7 °F 30.06 in SSW 6.0 mph 16.0 mph 90 % 0.01 in 107 W/m2
09:24 60.6 °F 57.7 °F 30.07 in SSW 6.0 mph 14.0 mph 90 % 0.01 in 90 W/m2
09:29 60.6 °F 57.7 °F 30.07 in SSW 7.0 mph 14.0 mph 90 % 0.01 in 111 W/m2
09:34 61.0 °F 58.0 °F 30.07 in South 6.0 mph 9.0 mph 90 % 0.01 in 125 W/m2
09:39 61.0 °F 58.0 °F 30.07 in South 5.0 mph 11.0 mph 90 % 0.01 in 121 W/m2
09:44 61.2 °F 57.9 °F 30.07 in SSW 6.0 mph 11.0 mph 89 % 0.01 in 137 W/m2
09:49 61.2 °F 58.2 °F 30.08 in SSW 7.0 mph 13.0 mph 90 % 0.01 in 130 W/m2
09:54 61.3 °F 58.1 °F 30.08 in SSW 8.0 mph 16.0 mph 89 % 0.01 in 146 W/m2
09:59 61.5 °F 58.2 °F 30.08 in SW 10.0 mph 16.0 mph 89 % 0.00 in 76 W/m2
10:04 61.5 °F 58.2 °F 30.07 in SW 10.0 mph 16.0 mph 89 % 0.00 in 40 W/m2
10:09 61.3 °F 58.1 °F 30.07 in SW 10.0 mph 16.0 mph 89 % 0.01 in 60 W/m2
10:14 61.2 °F 58.2 °F 30.07 in SW 8.0 mph 15.0 mph 90 % 0.02 in 116 W/m2
10:19 61.0 °F 58.3 °F 30.07 in SSW 9.0 mph 19.0 mph 91 % 0.02 in 118 W/m2
10:24 61.0 °F 58.3 °F 30.07 in SSW 8.0 mph 19.0 mph 91 % 0.02 in 127 W/m2
10:29 61.0 °F 58.6 °F 30.07 in SSW 7.0 mph 13.0 mph 92 % 0.02 in 141 W/m2
10:34 61.0 °F 58.6 °F 30.07 in SSW 7.0 mph 13.0 mph 92 % 0.02 in 134 W/m2
10:39 61.0 °F 58.6 °F 30.07 in SW 7.0 mph 13.0 mph 92 % 0.02 in 116 W/m2
10:44 61.0 °F 58.6 °F 30.07 in SW 6.0 mph 13.0 mph 92 % 0.02 in 100 W/m2
10:49 61.0 °F 58.6 °F 30.07 in SW 7.0 mph 14.0 mph 92 % 0.02 in 81 W/m2
10:50 61.0 °F 58.6 °F 30.07 in SW 7.0 mph 14.0 mph 92 % 0.02 in 88 W/m2
10:55 61.0 °F 58.6 °F 30.07 in SSW 7.0 mph 14.0 mph 92 % 0.02 in 128 W/m2
11:00 61.0 °F 58.9 °F 30.07 in SSW 8.0 mph 13.0 mph 93 % 0.02 in 155 W/m2
11:05 61.0 °F 58.9 °F 30.07 in SSW 9.0 mph 15.0 mph 93 % 0.03 in 213 W/m2
11:10 61.0 °F 58.9 °F 30.07 in SSW 9.0 mph 15.0 mph 93 % 0.02 in 229 W/m2
11:15 61.2 °F 59.1 °F 30.06 in SSW 9.0 mph 14.0 mph 93 % 0.02 in 209 W/m2
11:20 61.3 °F 59.3 °F 30.07 in SSW 9.0 mph 14.0 mph 93 % 0.02 in 178 W/m2
11:25 61.5 °F 59.5 °F 30.06 in SSW 8.0 mph 14.0 mph 93 % 0.02 in 156 W/m2
11:30 61.5 °F 59.5 °F 30.07 in SSW 8.0 mph 14.0 mph 93 % 0.02 in 153 W/m2
11:35 61.5 °F 59.2 °F 30.07 in SW 9.0 mph 16.0 mph 92 % 0.02 in 151 W/m2
11:41 61.5 °F 59.2 °F 30.07 in SW 10.0 mph 16.0 mph 92 % 0.02 in 151 W/m2
11:46 61.5 °F 59.2 °F 30.06 in SW 11.0 mph 22.0 mph 92 % 0.02 in 127 W/m2
11:51 61.5 °F 59.2 °F 30.06 in SSW 11.0 mph 22.0 mph 92 % 0.01 in 104 W/m2
11:56 61.5 °F 59.2 °F 30.06 in SSW 10.0 mph 18.0 mph 92 % 0.01 in 144 W/m2
12:01 61.5 °F 59.2 °F 30.06 in SW 9.0 mph 16.0 mph 92 % 0.02 in 232 W/m2
12:06 61.9 °F 59.8 °F 30.06 in SW 7.0 mph 15.0 mph 93 % 0.01 in 269 W/m2
12:11 62.1 °F 60.0 °F 30.06 in SW 7.0 mph 13.0 mph 93 % 0.01 in 246 W/m2
12:16 62.1 °F 60.0 °F 30.06 in SW 9.0 mph 19.0 mph 93 % 0.01 in 221 W/m2
12:21 62.1 °F 59.7 °F 30.06 in SW 11.0 mph 19.0 mph 92 % 0.01 in 281 W/m2
12:26 62.2 °F 59.6 °F 30.06 in SSW 11.0 mph 19.0 mph 91 % 0.01 in 229 W/m2
12:32 62.2 °F 59.6 °F 30.06 in SSW 12.0 mph 23.0 mph 91 % 0.01 in 257 W/m2
12:37 62.2 °F 59.3 °F 30.06 in SSW 12.0 mph 23.0 mph 90 % 0.01 in 234 W/m2
12:42 62.2 °F 59.3 °F 30.06 in SSW 11.0 mph 22.0 mph 90 % 0.01 in 200 W/m2
12:47 62.2 °F 59.3 °F 30.06 in SSW 11.0 mph 22.0 mph 90 % 0.01 in 329 W/m2
12:52 62.4 °F 59.1 °F 30.06 in SW 12.0 mph 20.0 mph 89 % 0.01 in 327 W/m2
12:57 62.6 °F 59.6 °F 30.06 in SW 12.0 mph 20.0 mph 90 % 0.01 in 221 W/m2
13:02 62.6 °F 59.3 °F 30.06 in SW 11.0 mph 20.0 mph 89 % 0.00 in 179 W/m2
13:07 62.6 °F 59.3 °F 30.06 in SW 11.0 mph 20.0 mph 89 % 0.00 in 142 W/m2
13:12 62.4 °F 58.8 °F 30.06 in SW 11.0 mph 21.0 mph 88 % 0.00 in 151 W/m2
13:17 62.4 °F 58.8 °F 30.06 in SW 12.0 mph 21.0 mph 88 % 0.00 in 186 W/m2
13:22 62.4 °F 58.8 °F 30.06 in SW 10.0 mph 19.0 mph 88 % 0.00 in 144 W/m2
13:27 62.4 °F 58.8 °F 30.07 in SW 9.0 mph 19.0 mph 88 % 0.00 in 111 W/m2
13:32 62.6 °F 59.0 °F 30.07 in SW 9.0 mph 19.0 mph 88 % 0.00 in 105 W/m2
13:37 62.6 °F 59.0 °F 30.07 in SW 8.0 mph 18.0 mph 88 % 0.00 in 130 W/m2
13:42 62.6 °F 59.0 °F 30.07 in SW 10.0 mph 18.0 mph 88 % 0.00 in 148 W/m2
13:47 62.8 °F 58.9 °F 30.07 in SW 10.0 mph 18.0 mph 87 % 0.00 in 229 W/m2
13:52 63.0 °F 59.3 °F 30.06 in SW 9.0 mph 19.0 mph 88 % 0.00 in 211 W/m2
13:57 63.1 °F 59.5 °F 30.06 in SW 9.0 mph 19.0 mph 88 % 0.00 in 376 W/m2
14:02 63.5 °F 59.6 °F 30.06 in SSW 9.0 mph 16.0 mph 87 % 0.00 in 279 W/m2
14:07 63.9 °F 59.6 °F 30.06 in SW 9.0 mph 16.0 mph 86 % 0.00 in 195 W/m2
14:12 64.0 °F 59.4 °F 30.07 in SW 10.0 mph 20.0 mph 85 % 0.00 in 172 W/m2
14:17 64.2 °F 59.6 °F 30.07 in SW 9.0 mph 20.0 mph 85 % 0.00 in 139 W/m2
14:22 64.2 °F 59.3 °F 30.07 in SW 10.0 mph 22.0 mph 84 % 0.00 in 160 W/m2
14:27 64.2 °F 59.3 °F 30.07 in SW 12.0 mph 22.0 mph 84 % 0.00 in 192 W/m2
14:32 64.4 °F 59.5 °F 30.07 in SW 11.0 mph 21.0 mph 84 % 0.00 in 200 W/m2
14:37 64.4 °F 59.1 °F 30.07 in SW 11.0 mph 22.0 mph 83 % 0.00 in 83 W/m2
14:42 64.2 °F 58.9 °F 30.08 in SW 11.0 mph 22.0 mph 83 % 0.00 in 49 W/m2
14:47 64.0 °F 59.1 °F 30.08 in SW 10.0 mph 20.0 mph 84 % 0.00 in 93 W/m2
14:52 64.0 °F 59.1 °F 30.08 in SW 11.0 mph 20.0 mph 84 % 0.00 in 253 W/m2
14:58 64.0 °F 59.1 °F 30.08 in SW 12.0 mph 20.0 mph 84 % 0.00 in 301 W/m2
15:03 64.2 °F 59.3 °F 30.08 in SW 12.0 mph 22.0 mph 84 % 0.00 in 183 W/m2
15:08 63.9 °F 59.6 °F 30.08 in SW 12.0 mph 22.0 mph 86 % 0.00 in 204 W/m2
15:13 63.3 °F 59.4 °F 30.08 in SW 12.0 mph 22.0 mph 87 % 0.00 in 86 W/m2
15:18 63.1 °F 59.2 °F 30.07 in SW 12.0 mph 22.0 mph 87 % 0.00 in 155 W/m2
15:23 63.3 °F 59.4 °F 30.07 in SW 10.0 mph 19.0 mph 87 % 0.00 in 283 W/m2
15:28 63.7 °F 59.7 °F 30.07 in SW 9.0 mph 16.0 mph 87 % 0.00 in 241 W/m2
15:33 64.0 °F 60.1 °F 30.07 in SW 9.0 mph 16.0 mph 87 % 0.00 in 163 W/m2
15:38 64.2 °F 59.6 °F 30.08 in SW 9.0 mph 18.0 mph 85 % 0.00 in 123 W/m2
15:43 64.2 °F 59.3 °F 30.08 in SW 10.0 mph 18.0 mph 84 % 0.00 in 209 W/m2
15:48 64.4 °F 59.5 °F 30.08 in SW 10.0 mph 21.0 mph 84 % 0.00 in 225 W/m2
15:53 64.6 °F 59.3 °F 30.08 in SW 10.0 mph 21.0 mph 83 % 0.00 in 264 W/m2
15:58 64.6 °F 59.0 °F 30.08 in SW 11.0 mph 20.0 mph 82 % 0.00 in 260 W/m2
16:03 64.8 °F 58.8 °F 30.08 in SW 11.0 mph 20.0 mph 81 % 0.00 in 125 W/m2
16:08 64.8 °F 59.1 °F 30.08 in SW 9.0 mph 15.0 mph 82 % 0.00 in 118 W/m2
16:13 64.8 °F 58.8 °F 30.08 in SW 9.0 mph 14.0 mph 81 % 0.00 in 134 W/m2
16:18 64.8 °F 58.8 °F 30.08 in SW 9.0 mph 16.0 mph 81 % 0.00 in 153 W/m2
16:23 64.8 °F 58.8 °F 30.08 in SW 9.0 mph 16.0 mph 81 % 0.00 in 148 W/m2
16:28 64.8 °F 58.8 °F 30.08 in SW 10.0 mph 18.0 mph 81 % 0.00 in 178 W/m2
16:33 64.6 °F 58.6 °F 30.08 in SW 11.0 mph 21.0 mph 81 % 0.00 in 229 W/m2
16:38 64.6 °F 58.6 °F 30.08 in SW 12.0 mph 21.0 mph 81 % 0.00 in 255 W/m2
16:43 64.8 °F 58.8 °F 30.08 in SW 13.0 mph 21.0 mph 81 % 0.00 in 399 W/m2
16:48 64.9 °F 58.6 °F 30.08 in SW 12.0 mph 21.0 mph 80 % 0.00 in 338 W/m2
16:53 65.3 °F 59.0 °F 30.08 in SW 12.0 mph 19.0 mph 80 % 0.00 in 378 W/m2
16:58 65.5 °F 58.8 °F 30.08 in SW 12.0 mph 20.0 mph 79 % 0.00 in 297 W/m2
17:03 65.7 °F 59.0 °F 30.08 in SW 13.0 mph 20.0 mph 79 % 0.00 in 181 W/m2
17:08 65.3 °F 58.6 °F 30.09 in SW 14.0 mph 21.0 mph 79 % 0.00 in 95 W/m2
17:13 64.9 °F 58.6 °F 30.09 in SW 14.0 mph 24.0 mph 80 % 0.00 in 111 W/m2
17:18 64.8 °F 58.4 °F 30.09 in SW 12.0 mph 24.0 mph 80 % 0.00 in 183 W/m2
17:23 64.8 °F 58.4 °F 30.09 in SW 12.0 mph 20.0 mph 80 % 0.00 in 146 W/m2
17:28 64.8 °F 58.4 °F 30.09 in SSW 13.0 mph 22.0 mph 80 % 0.00 in 113 W/m2
17:33 64.6 °F 58.3 °F 30.09 in SW 13.0 mph 26.0 mph 80 % 0.00 in 155 W/m2
17:38 64.6 °F 58.3 °F 30.08 in SW 12.0 mph 26.0 mph 80 % 0.00 in 190 W/m2
17:44 64.8 °F 58.4 °F 30.08 in SW 12.0 mph 21.0 mph 80 % 0.00 in 346 W/m2
17:49 64.9 °F 58.3 °F 30.08 in SW 13.0 mph 22.0 mph 79 % 0.00 in 216 W/m2
17:54 64.9 °F 58.3 °F 30.08 in SW 14.0 mph 23.0 mph 79 % 0.00 in 206 W/m2
17:59 65.1 °F 58.1 °F 30.08 in SW 13.0 mph 23.0 mph 78 % 0.00 in 195 W/m2
18:04 65.1 °F 58.4 °F 30.09 in SW 13.0 mph 21.0 mph 79 % 0.00 in 162 W/m2
18:09 64.9 °F 57.9 °F 30.08 in SSW 13.0 mph 21.0 mph 78 % 0.00 in 120 W/m2
18:14 64.8 °F 58.1 °F 30.08 in SW 12.0 mph 19.0 mph 79 % 0.00 in 132 W/m2
18:19 64.6 °F 57.9 °F 30.09 in SW 12.0 mph 19.0 mph 79 % 0.00 in 107 W/m2
18:24 64.6 °F 58.3 °F 30.09 in SW 11.0 mph 19.0 mph 80 % 0.00 in 90 W/m2
18:29 64.4 °F 58.1 °F 30.09 in SW 10.0 mph 19.0 mph 80 % 0.00 in 81 W/m2
18:34 64.2 °F 57.9 °F 30.09 in SW 11.0 mph 20.0 mph 80 % 0.00 in 46 W/m2
18:39 64.0 °F 57.7 °F 30.09 in SW 11.0 mph 20.0 mph 80 % 0.00 in 54 W/m2
18:44 64.0 °F 57.7 °F 30.09 in SW 10.0 mph 15.0 mph 80 % 0.00 in 84 W/m2
18:49 64.0 °F 57.7 °F 30.09 in SW 9.0 mph 16.0 mph 80 % 0.00 in 72 W/m2
18:54 63.9 °F 57.6 °F 30.09 in SW 9.0 mph 16.0 mph 80 % 0.00 in 56 W/m2
18:59 63.9 °F 57.9 °F 30.09 in SW 8.0 mph 14.0 mph 81 % 0.00 in 46 W/m2
19:04 63.9 °F 57.9 °F 30.09 in SW 8.0 mph 16.0 mph 81 % 0.00 in 79 W/m2
19:09 63.9 °F 57.9 °F 30.09 in SW 9.0 mph 16.0 mph 81 % 0.00 in 98 W/m2
19:14 63.7 °F 57.7 °F 30.09 in SW 9.0 mph 14.0 mph 81 % 0.00 in 65 W/m2
19:19 63.7 °F 57.7 °F 30.09 in SW 8.0 mph 15.0 mph 81 % 0.00 in 74 W/m2
19:24 63.7 °F 57.7 °F 30.09 in SW 8.0 mph 15.0 mph 81 % 0.00 in 84 W/m2
19:29 63.5 °F 57.9 °F 30.09 in SW 8.0 mph 15.0 mph 82 % 0.00 in 58 W/m2
19:34 63.5 °F 57.9 °F 30.09 in SW 8.0 mph 14.0 mph 82 % 0.00 in 56 W/m2
19:39 63.3 °F 57.7 °F 30.10 in SW 8.0 mph 13.0 mph 82 % 0.00 in 39 W/m2
19:44 63.3 °F 57.7 °F 30.10 in SW 8.0 mph 11.0 mph 82 % 0.00 in 44 W/m2
19:49 63.3 °F 57.7 °F 30.10 in SW 8.0 mph 11.0 mph 82 % 0.00 in 37 W/m2
19:54 63.1 °F 57.6 °F 30.10 in SW 8.0 mph 12.0 mph 82 % 0.00 in 37 W/m2
19:59 63.1 °F 57.6 °F 30.10 in SW 8.0 mph 13.0 mph 82 % 0.00 in 40 W/m2
20:04 63.0 °F 57.7 °F 30.10 in SW 9.0 mph 13.0 mph 83 % 0.00 in 37 W/m2
20:09 63.0 °F 57.7 °F 30.10 in SW 9.0 mph 13.0 mph 83 % 0.00 in 30 W/m2
20:14 63.0 °F 57.7 °F 30.10 in SW 8.0 mph 13.0 mph 83 % 0.00 in 30 W/m2
20:19 62.8 °F 57.5 °F 30.10 in SW 7.0 mph 13.0 mph 83 % 0.00 in 18 W/m2
20:24 62.8 °F 57.2 °F 30.10 in SW 8.0 mph 13.0 mph 82 % 0.00 in 16 W/m2
20:29 62.8 °F 57.5 °F 30.11 in SW 8.0 mph 13.0 mph 83 % 0.00 in 16 W/m2
20:34 62.8 °F 57.5 °F 30.11 in SW 7.0 mph 15.0 mph 83 % 0.00 in 12 W/m2
20:39 62.8 °F 57.5 °F 30.11 in SW 7.0 mph 15.0 mph 83 % 0.00 in 9 W/m2
20:44 62.4 °F 57.2 °F 30.11 in SW 7.0 mph 13.0 mph 83 % 0.00 in 11 W/m2
20:50 62.4 °F 57.5 °F 30.11 in SW 7.0 mph 11.0 mph 84 % 0.00 in 11 W/m2
20:55 62.2 °F 57.3 °F 30.11 in SW 6.0 mph 10.0 mph 84 % 0.00 in 12 W/m2
21:00 62.1 °F 57.2 °F 30.11 in SW 6.0 mph 11.0 mph 84 % 0.00 in 9 W/m2
21:05 62.1 °F 57.2 °F 30.11 in SW 6.0 mph 11.0 mph 84 % 0.00 in 7 W/m2
21:10 61.9 °F 57.0 °F 30.11 in SW 6.0 mph 11.0 mph 84 % 0.00 in 7 W/m2
21:15 61.9 °F 57.0 °F 30.11 in SW 8.0 mph 13.0 mph 84 % 0.00 in 0 W/m2
21:20 61.9 °F 56.7 °F 30.12 in SW 8.0 mph 13.0 mph 83 % 0.00 in 0 W/m2
21:25 61.9 °F 56.7 °F 30.12 in SW 8.0 mph 12.0 mph 83 % 0.00 in 0 W/m2
21:30 61.9 °F 56.7 °F 30.12 in WSW 7.0 mph 12.0 mph 83 % 0.00 in 0 W/m2
21:35 61.9 °F 56.7 °F 30.12 in WSW 6.0 mph 10.0 mph 83 % 0.00 in 0 W/m2
21:40 61.9 °F 56.7 °F 30.13 in WSW 6.0 mph 10.0 mph 83 % 0.00 in 0 W/m2
21:45 61.7 °F 56.5 °F 30.13 in WSW 5.0 mph 9.0 mph 83 % 0.00 in 0 W/m2
21:50 61.7 °F 56.5 °F 30.12 in WSW 5.0 mph 8.0 mph 83 % 0.00 in 0 W/m2
21:55 61.5 °F 56.6 °F 30.12 in WSW 4.0 mph 8.0 mph 84 % 0.00 in 0 W/m2
22:00 61.5 °F 56.6 °F 30.12 in WSW 2.0 mph 5.0 mph 84 % 0.00 in 0 W/m2
22:05 61.3 °F 56.5 °F 30.12 in WSW 3.0 mph 7.0 mph 84 % 0.00 in 0 W/m2
22:10 61.3 °F 56.5 °F 30.12 in WSW 4.0 mph 7.0 mph 84 % 0.00 in 0 W/m2
22:15 61.3 °F 56.5 °F 30.12 in WSW 2.0 mph 5.0 mph 84 % 0.00 in 0 W/m2
22:20 61.2 °F 56.3 °F 30.12 in WSW 1.0 mph 4.0 mph 84 % 0.00 in 0 W/m2
22:25 61.2 °F 56.3 °F 30.13 in WSW 1.0 mph 7.0 mph 84 % 0.00 in 0 W/m2
22:30 61.2 °F 56.3 °F 30.13 in WSW 3.0 mph 8.0 mph 84 % 0.00 in 0 W/m2
22:35 61.2 °F 56.6 °F 30.13 in WSW 4.0 mph 8.0 mph 85 % 0.00 in 0 W/m2
22:40 61.2 °F 56.6 °F 30.13 in WSW 4.0 mph 8.0 mph 85 % 0.00 in 0 W/m2
22:45 61.0 °F 56.4 °F 30.13 in WSW 4.0 mph 9.0 mph 85 % 0.00 in 0 W/m2
22:50 61.0 °F 56.4 °F 30.13 in WSW 4.0 mph 9.0 mph 85 % 0.00 in 0 W/m2
22:51 61.0 °F 56.4 °F 30.13 in WSW 4.0 mph 8.0 mph 85 % 0.00 in 0 W/m2
22:56 61.0 °F 56.8 °F 30.13 in WSW 4.0 mph 8.0 mph 86 % 0.00 in 0 W/m2
23:01 60.6 °F 56.7 °F 30.13 in WSW 3.0 mph 9.0 mph 87 % 0.00 in 0 W/m2
23:02 60.6 °F 57.0 °F 30.13 in SW 3.0 mph 9.0 mph 88 % 0.00 in 0 W/m2
23:07 60.3 °F 57.0 °F 30.13 in SW 2.0 mph 6.0 mph 89 % 0.00 in 0 W/m2
23:12 60.1 °F 56.8 °F 30.13 in SW 1.0 mph 5.0 mph 89 % 0.00 in 0 W/m2
23:17 60.1 °F 57.1 °F 30.13 in Calm     90 % 0.00 in 0 W/m2
23:22 59.9 °F 57.0 °F 30.13 in Calm     90 % 0.00 in 0 W/m2
23:27 59.7 °F 57.1 °F 30.13 in Calm   1.0 mph 91 % 0.00 in 0 W/m2
23:32 59.5 °F 56.9 °F 30.13 in Calm   1.0 mph 91 % 0.00 in 0 W/m2
23:37 59.5 °F 57.2 °F 30.13 in Calm     92 % 0.00 in 0 W/m2
23:42 59.4 °F 57.0 °F 30.13 in Calm     92 % 0.00 in 0 W/m2
23:48 59.4 °F 57.0 °F 30.13 in Calm     92 % 0.00 in 0 W/m2
23:53 59.2 °F 56.9 °F 30.13 in Calm     92 % 0.00 in 0 W/m2
23:58 59.2 °F 57.2 °F 30.13 in Calm     93 % 0.00 in 0 W/m2
Delerius-Weather
Compliments of Weather Underground - 2.25 mb

Data updates at regular intervals.